Lake Cumberland Regional Airport
KSME : now visible

Airfield :











YOU CAN JOIN US ON...

 
LOGIN :

Register | Disclaimer

   EN    FR    IT 

 









Legend :    VFR   Marginal VFR   IFR   Intensive IFR   Very Intensive IFR
Visi :
Ceiling :
>= 8 km
>= 3000ft
5 to 8 km
1000 to 3000 ft
1500m to 5 km
500 to 1000 ft
800 to 1500m
200 to 500 ft
< 800m
< 200 ft
Symbols :   Thunderstorms  Fog  Heavy snow  Heavy precipitations  Wind > 20 kt






- Airport Elevation : 927 ft


KSME - Lake Cumberland Regional

CURRENT METAR :
  • 061955Z AUTO 24003KT 10SM SCT065 OVC090 10/02 A3015 RMK AO2

EXPIRED METARs :
  • 061935Z AUTO 24005KT 10SM -RA BKN050 BKN075 OVC085 10/02 A3015 RMK AO2
  • 061915Z AUTO 23009G14KT 10SM OVC050 10/02 A3015 RMK AO2
  • 061855Z AUTO 24008KT 10SM -DZ BKN048 OVC075 10/02 A3015 RMK AO2
  • 061835Z AUTO 00000KT 10SM -DZ SCT050 BKN080 OVC095 10/02 A3015 RMK AO2
  • 061815Z AUTO 00000KT 10SM -RA BKN055 BKN070 OVC095 10/01 A3015 RMK AO2
  • 061755Z AUTO 00000KT 10SM -DZ SCT055 BKN070 OVC090 11/00 A3014 RMK AO2
  • 061735Z AUTO 00000KT 10SM SCT070 OVC100 11/M01 A3014 RMK AO2
  • 061715Z AUTO 00000KT 10SM OVC090 11/M01 A3014 RMK AO2

TAF KSME
Valid from the 06 at 18:00 until the 07 at 18:00 UTC


061750Z 0618/0718 VRB03KT P6SM VCSH SCT045 OVC070
FM062100 VRB03KT P6SM SCT030 OVC050
FM070300 VRB05KT P6SM OVC030
FM071200 07005KT P6SM SCT035



MET'MAP, your aeronautical weather chart ! - Copyright ORBIFLY December 2007 - Disclaimer

ORBIFLY MET'MAP TEAM :

Programming & Development : Alexandra Zaïnal
Concept & original design : Baudouin d'Aumeries
Assistance for programming : Marc-Olivier Méhu
Technical & hardware support : Manuel Goepfert

Contact : metmap@orbifly.com




SOURCES & CREDITS :

   NOAA       Earth
Advisory